Airfield :
LOGIN :

Register | Disclaimer

   EN    FR    IT 

 










Legend :    VFR   Marginal VFR   IFR   Intensive IFR   Very Intensive IFR
Visi :
Ceiling :
>= 8 km
>= 3000ft
5 to 8 km
1000 to 3000 ft
1500m to 5 km
500 to 1000 ft
800 to 1500m
200 to 500 ft
< 800m
< 200 ft
Symbols :   Thunderstorms  Fog  Heavy snow  Heavy precipitations  Wind > 20 kt
SIGMETs :     Misc.  Thunderstorms  Icing  Turbulence  Mountain Waves  Volcanic Ashes







- Airport Elevation : 935 ft


EBFS - Florennes

CURRENT METAR :
  • 211555Z AUTO 18008KT 9999 -DZ FEW011/// SCT014/// BKN050/// 03/00 Q1015 GRN

EXPIRED METARs :
  • 211540Z AUTO 18006KT 9999 -DZ FEW011/// BKN014/// OVC070/// 03/00 Q1015 GRN
  • 211525Z AUTO 17007KT 9999 FEW012/// SCT015/// BKN018/// 03/00 Q1015 WHT
  • 211509Z AUTO 17006KT 9999 SCT013/// BKN019/// OVC080/// 03/00 Q1016 GRN
  • 211455Z AUTO 17005KT 9999 FEW014/// SCT020/// OVC075/// 03/00 Q1016 WHT
  • 211454Z AUTO 18005KT 9999 FEW014/// SCT020/// OVC075/// 03/00 Q1016 WHT
  • 211425Z AUTO 19005KT 9999 FEW013/// OVC075/// 03/00 Q1016 BLU
  • 211355Z AUTO 16006KT 9999 FEW010/// SCT022/// BKN080/// 03/00 Q1016 WHT
  • 211325Z AUTO 17004KT 9999 FEW010/// SCT018/// OVC090/// 03/01 Q1016 WHT

TAF TAF EBFS
Valid from the 21 at 13:00 until the 21 at 22:00 UTC


211141Z 2113/2122 24006KT 9999 SCT008 SCT010
TEMPO 2113/2114 SCT015 BKN100
BECMG 2114/2116 20006KT SCT008 BKN010
BECMG 2116/2118 4000 -RASN SCT006 BKN007
PROB30
TEMPO 2118/2120 1200 SN SCT002 OVC003
BECMG 2120/2122 20008KT 3000 BR -RA BKN003 OVC005
No reported NOTAMs for that airfield.
1 SIGMET reported for the Brussels FIR (EBBU) :
 
Severe icing
EBBU SIGMET 01 VALID 211600/212000 EBBR
EBBU BRUSSELS FIR SEV ICE FCST SE OF LINE N5020 E004 - N51 E00545 FL020/060 MOV ENE NC=



MET'MAP, your aeronautical weather chart ! - Copyright ORBIFLY December 2007 - Disclaimer

ORBIFLY MET'MAP TEAM :

Programming & Development : Alexandra Zaïnal
Concept & Development : Baudouin d'Aumeries
Co-Development & Prog : Marc-Olivier Méhu
Technical & hardware support : Manuel Goepfert

Contact : metmap@orbifly.com




SOURCES & CREDITS :

   NOAA